^^
Saratoga-Weather Station Historical Data
Daily Summary for October 20, 2020 Units:  Both    English   Metric
Daily Weekly Monthly Yearly Custom
  High: Low: Average:
Temperature: 58.6 °F /  14.8 °C 39 °F /  3.9 °C 48.6 °F /  9.2 °C
Dew Point: 54.5 °F /  12.5 °C 37.9 °F /  3.3 °C 46 °F /  7.8 °C
Humidity: 97% 82% 92%
Wind Speed: 2.9mph /  4.7km/h - 0.1mph /  0.2km/h
Wind Gust: 4mph /  6.4km/h - -
Wind- - South
Pressure: 30 in /  1014.9 hPa 29.8 in /  1008.8 hPa -
Precipitation: 0 in /  0.0 mm    
Historical Graphs
 
 
Tabular Data for October 20, 2020
Time Temperature Dew Point Pressure Wind Wind Speed Wind Gust Humidity Rainfall Rate (Hourly) solar
00:49 40.6 °F /  4.8 °C 38.8 °F /  3.8 °C 30in /  1014.9hPa Calm     93% 0in /  0.0mm 0 W/m2
00:54 40.6 °F /  4.8 °C 38.8 °F /  3.8 °C 30in /  1014.9hPa Calm     93% 0in /  0.0mm 0 W/m2
00:59 40.6 °F /  4.8 °C 38.8 °F /  3.8 °C 30in /  1014.9hPa Calm     93% 0in /  0.0mm 0 W/m2
01:04 40.5 °F /  4.7 °C 38.7 °F /  3.7 °C 30in /  1014.9hPa Calm     93% 0in /  0.0mm 0 W/m2
01:09 40.5 °F /  4.7 °C 38.7 °F /  3.7 °C 30in /  1014.9hPa Calm     93% 0in /  0.0mm 0 W/m2
01:14 40.5 °F /  4.7 °C 38.8 °F /  3.8 °C 30in /  1014.9hPa Calm     94% 0in /  0.0mm 0 W/m2
01:19 40.5 °F /  4.7 °C 38.8 °F /  3.8 °C 30in /  1014.6hPa Calm     94% 0in /  0.0mm 0 W/m2
01:24 40.5 °F /  4.7 °C 38.8 °F /  3.8 °C 30in /  1014.6hPa Calm   1mph /  1.6km/h 94% 0in /  0.0mm 0 W/m2
01:29 40.5 °F /  4.7 °C 38.8 °F /  3.8 °C 30in /  1014.6hPa SE 0.9mph /  1.4km/h 1mph /  1.6km/h 94% 0in /  0.0mm 0 W/m2
01:34 40.5 °F /  4.7 °C 38.8 °F /  3.8 °C 30in /  1014.6hPa Calm     94% 0in /  0.0mm 0 W/m2
01:39 40.5 °F /  4.7 °C 38.8 °F /  3.8 °C 30in /  1014.6hPa SE 0.9mph /  1.4km/h 2mph /  3.2km/h 94% 0in /  0.0mm 0 W/m2
01:44 40.5 °F /  4.7 °C 38.8 °F /  3.8 °C 30in /  1014.6hPa Calm   1mph /  1.6km/h 94% 0in /  0.0mm 0 W/m2
01:50 40.5 °F /  4.7 °C 38.8 °F /  3.8 °C 30in /  1014.6hPa SE 0.9mph /  1.4km/h 2mph /  3.2km/h 94% 0in /  0.0mm 0 W/m2
01:55 40.5 °F /  4.7 °C 38.8 °F /  3.8 °C 30in /  1014.6hPa Calm     94% 0in /  0.0mm 0 W/m2
02:00 40.3 °F /  4.6 °C 38.7 °F /  3.7 °C 30in /  1014.6hPa Calm     94% 0in /  0.0mm 0 W/m2
02:05 40.3 °F /  4.6 °C 38.7 °F /  3.7 °C 30in /  1014.6hPa Calm     94% 0in /  0.0mm 0 W/m2
02:10 40.1 °F /  4.5 °C 38.5 °F /  3.6 °C 30in /  1014.6hPa Calm     94% 0in /  0.0mm 0 W/m2
02:15 40.1 °F /  4.5 °C 38.5 °F /  3.6 °C 30in /  1014.6hPa Calm     94% 0in /  0.0mm 0 W/m2
02:20 39.9 °F /  4.4 °C 38.3 °F /  3.5 °C 30in /  1014.2hPa Calm     94% 0in /  0.0mm 0 W/m2
02:25 39.9 °F /  4.4 °C 38.7 °F /  3.7 °C 30in /  1014.6hPa Calm     95% 0in /  0.0mm 0 W/m2
02:30 39.9 °F /  4.4 °C 38.3 °F /  3.5 °C 30in /  1014.2hPa Calm     94% 0in /  0.0mm 0 W/m2
02:35 39.9 °F /  4.4 °C 38.3 °F /  3.5 °C 30in /  1014.6hPa Calm     94% 0in /  0.0mm 0 W/m2
02:40 39.9 °F /  4.4 °C 38.3 °F /  3.5 °C 30in /  1014.2hPa Calm     94% 0in /  0.0mm 0 W/m2
02:45 39.9 °F /  4.4 °C 38.3 °F /  3.5 °C 30in /  1014.2hPa Calm     94% 0in /  0.0mm 0 W/m2
02:50 39.9 °F /  4.4 °C 38.3 °F /  3.5 °C 30in /  1014.2hPa Calm     94% 0in /  0.0mm 0 W/m2
02:55 39.7 °F /  4.3 °C 38.1 °F /  3.4 °C 30in /  1014.2hPa Calm     94% 0in /  0.0mm 0 W/m2
03:00 39.7 °F /  4.3 °C 38.5 °F /  3.6 °C 30in /  1014.2hPa Calm     95% 0in /  0.0mm 0 W/m2
03:05 39.7 °F /  4.3 °C 38.5 °F /  3.6 °C 29.9in /  1013.9hPa Calm     95% 0in /  0.0mm 0 W/m2
03:10 39.7 °F /  4.3 °C 38.5 °F /  3.6 °C 29.9in /  1013.9hPa Calm     95% 0in /  0.0mm 0 W/m2
03:15 39.6 °F /  4.2 °C 38.3 °F /  3.5 °C 29.9in /  1013.9hPa Calm     95% 0in /  0.0mm 0 W/m2
03:20 39.6 °F /  4.2 °C 38.3 °F /  3.5 °C 29.9in /  1013.9hPa Calm   1mph /  1.6km/h 95% 0in /  0.0mm 0 W/m2
03:25 39.6 °F /  4.2 °C 38.3 °F /  3.5 °C 29.9in /  1013.9hPa Calm     95% 0in /  0.0mm 0 W/m2
03:30 39.6 °F /  4.2 °C 38.3 °F /  3.5 °C 29.9in /  1013.9hPa Calm     95% 0in /  0.0mm 0 W/m2
03:35 39.6 °F /  4.2 °C 38.3 °F /  3.5 °C 29.9in /  1013.5hPa Calm     95% 0in /  0.0mm 0 W/m2
03:40 39.6 °F /  4.2 °C 38.3 °F /  3.5 °C 29.9in /  1013.5hPa Calm     95% 0in /  0.0mm 0 W/m2
03:45 39.4 °F /  4.1 °C 38.1 °F /  3.4 °C 29.9in /  1013.5hPa Calm     95% 0in /  0.0mm 0 W/m2
03:50 39.4 °F /  4.1 °C 38.1 °F /  3.4 °C 29.9in /  1013.5hPa Calm     95% 0in /  0.0mm 0 W/m2
03:55 39.4 °F /  4.1 °C 38.1 °F /  3.4 °C 29.9in /  1013.5hPa Calm     95% 0in /  0.0mm 0 W/m2
04:00 39.4 °F /  4.1 °C 38.1 °F /  3.4 °C 29.9in /  1013.2hPa Calm     95% 0in /  0.0mm 0 W/m2
04:05 39.4 °F /  4.1 °C 38.1 °F /  3.4 °C 29.9in /  1013.5hPa Calm     95% 0in /  0.0mm 0 W/m2
04:10 39.6 °F /  4.2 °C 38.3 °F /  3.5 °C 29.9in /  1013.5hPa Calm     95% 0in /  0.0mm 0 W/m2
04:15 39.6 °F /  4.2 °C 38.3 °F /  3.5 °C 29.9in /  1013.5hPa Calm     95% 0in /  0.0mm 0 W/m2
04:20 39.6 °F /  4.2 °C 38.3 °F /  3.5 °C 29.9in /  1013.5hPa Calm     95% 0in /  0.0mm 0 W/m2
04:25 39.6 °F /  4.2 °C 38.3 °F /  3.5 °C 29.9in /  1013.5hPa Calm     95% 0in /  0.0mm 0 W/m2
04:30 39.7 °F /  4.3 °C 38.5 °F /  3.6 °C 29.9in /  1013.5hPa Calm     95% 0in /  0.0mm 0 W/m2
04:35 39.6 °F /  4.2 °C 38.3 °F /  3.5 °C 29.9in /  1013.5hPa Calm     95% 0in /  0.0mm 0 W/m2
04:40 39.6 °F /  4.2 °C 38.3 °F /  3.5 °C 29.9in /  1013.5hPa Calm     95% 0in /  0.0mm 0 W/m2
04:45 39.6 °F /  4.2 °C 38.3 °F /  3.5 °C 29.9in /  1013.2hPa Calm     95% 0in /  0.0mm 0 W/m2
04:50 39.6 °F /  4.2 °C 38.3 °F /  3.5 °C 29.9in /  1013.2hPa Calm     95% 0in /  0.0mm 0 W/m2
04:55 39.6 °F /  4.2 °C 38.3 °F /  3.5 °C 29.9in /  1013.2hPa Calm     95% 0in /  0.0mm 0 W/m2
05:00 39.6 °F /  4.2 °C 38.3 °F /  3.5 °C 29.9in /  1012.9hPa Calm     95% 0in /  0.0mm 0 W/m2
05:05 39.6 °F /  4.2 °C 38.3 °F /  3.5 °C 29.9in /  1012.9hPa Calm     95% 0in /  0.0mm 0 W/m2
05:10 39.6 °F /  4.2 °C 38.3 °F /  3.5 °C 29.9in /  1012.9hPa Calm     95% 0in /  0.0mm 0 W/m2
05:15 39.6 °F /  4.2 °C 38.3 °F /  3.5 °C 29.9in /  1012.9hPa Calm     95% 0in /  0.0mm 0 W/m2
05:20 39.6 °F /  4.2 °C 38.5 °F /  3.6 °C 29.9in /  1013.2hPa Calm     96% 0in /  0.0mm 0 W/m2
05:25 39.6 °F /  4.2 °C 38.5 °F /  3.6 °C 29.9in /  1012.9hPa Calm     96% 0in /  0.0mm 0 W/m2
05:30 39.6 °F /  4.2 °C 38.5 °F /  3.6 °C 29.9in /  1012.9hPa Calm     96% 0in /  0.0mm 0 W/m2
05:35 39.6 °F /  4.2 °C 38.5 °F /  3.6 °C 29.9in /  1012.9hPa Calm     96% 0in /  0.0mm 0 W/m2
05:40 39.4 °F /  4.1 °C 38.3 °F /  3.5 °C 29.9in /  1012.5hPa Calm     96% 0in /  0.0mm 0 W/m2
05:45 39.4 °F /  4.1 °C 38.3 °F /  3.5 °C 29.9in /  1012.5hPa Calm     96% 0in /  0.0mm 0 W/m2
05:50 39.4 °F /  4.1 °C 38.1 °F /  3.4 °C 29.9in /  1012.5hPa Calm     95% 0in /  0.0mm 0 W/m2
05:55 39.4 °F /  4.1 °C 38.1 °F /  3.4 °C 29.9in /  1012.9hPa Calm     95% 0in /  0.0mm 0 W/m2
06:00 39.2 °F /  4 °C 37.9 °F /  3.3 °C 29.9in /  1012.5hPa Calm     95% 0in /  0.0mm 0 W/m2
06:05 39.4 °F /  4.1 °C 38.1 °F /  3.4 °C 29.9in /  1012.5hPa Calm     95% 0in /  0.0mm 0 W/m2
06:10 39.4 °F /  4.1 °C 38.3 °F /  3.5 °C 29.9in /  1012.5hPa Calm     96% 0in /  0.0mm 0 W/m2
06:15 39.4 °F /  4.1 °C 38.3 °F /  3.5 °C 29.9in /  1012.5hPa Calm     96% 0in /  0.0mm 0 W/m2
06:20 39.4 °F /  4.1 °C 38.3 °F /  3.5 °C 29.9in /  1012.5hPa Calm     96% 0in /  0.0mm 0 W/m2
06:25 39.4 °F /  4.1 °C 38.3 °F /  3.5 °C 29.9in /  1012.5hPa Calm     96% 0in /  0.0mm 0 W/m2
06:30 39.4 °F /  4.1 °C 38.1 °F /  3.4 °C 29.9in /  1012.5hPa Calm     95% 0in /  0.0mm 0 W/m2
06:35 39.2 °F /  4 °C 38.1 °F /  3.4 °C 29.9in /  1012.5hPa Calm     96% 0in /  0.0mm 0 W/m2
06:40 39.2 °F /  4 °C 38.1 °F /  3.4 °C 29.9in /  1012.5hPa Calm     96% 0in /  0.0mm 0 W/m2
06:45 39 °F /  3.9 °C 37.9 °F /  3.3 °C 29.9in /  1012.9hPa Calm     96% 0in /  0.0mm 0 W/m2
06:50 39 °F /  3.9 °C 37.9 °F /  3.3 °C 29.9in /  1012.9hPa Calm     96% 0in /  0.0mm 0 W/m2
06:55 39.2 °F /  4 °C 38.1 °F /  3.4 °C 29.9in /  1012.5hPa Calm     96% 0in /  0.0mm 0 W/m2
07:00 39.4 °F /  4.1 °C 38.3 °F /  3.5 °C 29.9in /  1012.5hPa Calm     96% 0in /  0.0mm 0 W/m2
07:05 39.7 °F /  4.3 °C 38.7 °F /  3.7 °C 29.9in /  1012.5hPa Calm     96% 0in /  0.0mm 0 W/m2
07:10 39.7 °F /  4.3 °C 38.7 °F /  3.7 °C 29.9in /  1012.5hPa Calm     96% 0in /  0.0mm 0 W/m2
07:15 39.9 °F /  4.4 °C 38.8 °F /  3.8 °C 29.9in /  1012.5hPa Calm     96% 0in /  0.0mm 0 W/m2
07:20 39.9 °F /  4.4 °C 38.8 °F /  3.8 °C 29.9in /  1012.5hPa Calm     96% 0in /  0.0mm 0 W/m2
07:25 39.9 °F /  4.4 °C 38.8 °F /  3.8 °C 29.9in /  1012.2hPa Calm     96% 0in /  0.0mm 0 W/m2
07:30 39.7 °F /  4.3 °C 38.7 °F /  3.7 °C 29.9in /  1012.5hPa Calm     96% 0in /  0.0mm 0 W/m2
07:35 39.7 °F /  4.3 °C 38.7 °F /  3.7 °C 29.9in /  1012.5hPa Calm     96% 0in /  0.0mm 0 W/m2
07:40 39.7 °F /  4.3 °C 38.7 °F /  3.7 °C 29.9in /  1012.5hPa SE 0.9mph /  1.4km/h 1mph /  1.6km/h 96% 0in /  0.0mm 0 W/m2
07:45 39.7 °F /  4.3 °C 38.7 °F /  3.7 °C 29.9in /  1012.2hPa Calm   1mph /  1.6km/h 96% 0in /  0.0mm 0 W/m2
07:50 39.7 °F /  4.3 °C 38.7 °F /  3.7 °C 29.9in /  1012.2hPa Calm     96% 0in /  0.0mm 0 W/m2
07:55 39.7 °F /  4.3 °C 38.7 °F /  3.7 °C 29.9in /  1012.2hPa Calm     96% 0in /  0.0mm 0 W/m2
08:00 40.1 °F /  4.5 °C 39 °F /  3.9 °C 29.9in /  1012.2hPa Calm     96% 0in /  0.0mm 0 W/m2
08:05 40.3 °F /  4.6 °C 39.2 °F /  4 °C 29.9in /  1012.2hPa Calm     96% 0in /  0.0mm 0 W/m2
08:10 40.3 °F /  4.6 °C 39.2 °F /  4 °C 29.9in /  1012.2hPa Calm     96% 0in /  0.0mm 0 W/m2
08:15 40.3 °F /  4.6 °C 39.2 °F /  4 °C 29.9in /  1012.2hPa Calm   1mph /  1.6km/h 96% 0in /  0.0mm 0 W/m2
08:20 39.9 °F /  4.4 °C 38.8 °F /  3.8 °C 29.9in /  1012.5hPa Calm     96% 0in /  0.0mm 7 W/m2
08:25 39.9 °F /  4.4 °C 38.8 °F /  3.8 °C 29.9in /  1012.2hPa Calm   1mph /  1.6km/h 96% 0in /  0.0mm 9 W/m2
08:30 39.9 °F /  4.4 °C 38.8 °F /  3.8 °C 29.9in /  1012.2hPa Calm     96% 0in /  0.0mm 12 W/m2
08:35 39.9 °F /  4.4 °C 38.8 °F /  3.8 °C 29.9in /  1012.5hPa Calm     96% 0in /  0.0mm 12 W/m2
08:40 39.9 °F /  4.4 °C 38.8 °F /  3.8 °C 29.9in /  1012.5hPa Calm     96% 0in /  0.0mm 14 W/m2
08:45 39.9 °F /  4.4 °C 38.8 °F /  3.8 °C 29.9in /  1012.9hPa Calm     96% 0in /  0.0mm 19 W/m2
08:50 40.1 °F /  4.5 °C 39 °F /  3.9 °C 29.9in /  1012.9hPa Calm     96% 0in /  0.0mm 23 W/m2
08:55 40.3 °F /  4.6 °C 39.2 °F /  4 °C 29.9in /  1012.5hPa Calm     96% 0in /  0.0mm 32 W/m2
09:00 40.5 °F /  4.7 °C 39.4 °F /  4.1 °C 29.9in /  1012.5hPa Calm     96% 0in /  0.0mm 33 W/m2
09:05 41.2 °F /  5.1 °C 40.5 °F /  4.7 °C 29.9in /  1012.5hPa Calm     97% 0in /  0.0mm 35 W/m2
09:10 41.5 °F /  5.3 °C 40.8 °F /  4.9 °C 29.9in /  1012.5hPa Calm     97% 0in /  0.0mm 40 W/m2
09:15 41.7 °F /  5.4 °C 41 °F /  5 °C 29.9in /  1012.9hPa Calm   1mph /  1.6km/h 97% 0in /  0.0mm 54 W/m2
09:20 41.9 °F /  5.5 °C 41.2 °F /  5.1 °C 29.9in /  1012.5hPa Calm     97% 0in /  0.0mm 72 W/m2
09:25 42.1 °F /  5.6 °C 41.4 °F /  5.2 °C 29.9in /  1012.5hPa Calm   1mph /  1.6km/h 97% 0in /  0.0mm 69 W/m2
09:30 42.3 °F /  5.7 °C 41.2 °F /  5.1 °C 29.9in /  1012.5hPa Calm   1mph /  1.6km/h 96% 0in /  0.0mm 67 W/m2
09:35 42.4 °F /  5.8 °C 41.7 °F /  5.4 °C 29.9in /  1012.9hPa SE 0.9mph /  1.4km/h 1mph /  1.6km/h 97% 0in /  0.0mm 72 W/m2
09:40 42.4 °F /  5.8 °C 41.4 °F /  5.2 °C 29.9in /  1012.9hPa Calm     96% 0in /  0.0mm 83 W/m2
09:45 42.6 °F /  5.9 °C 41.5 °F /  5.3 °C 29.9in /  1012.9hPa Calm     96% 0in /  0.0mm 83 W/m2
09:50 43 °F /  6.1 °C 42.3 °F /  5.7 °C 29.9in /  1012.9hPa Calm     97% 0in /  0.0mm 104 W/m2
09:55 43.3 °F /  6.3 °C 42.6 °F /  5.9 °C 29.9in /  1012.9hPa Calm     97% 0in /  0.0mm 144 W/m2
10:01 43.9 °F /  6.6 °C 43.2 °F /  6.2 °C 29.9in /  1012.9hPa Calm   1mph /  1.6km/h 97% 0in /  0.0mm 158 W/m2
10:06 44.6 °F /  7 °C 43.9 °F /  6.6 °C 29.9in /  1012.5hPa Calm     97% 0in /  0.0mm 190 W/m2
10:11 45.1 °F /  7.3 °C 44.4 °F /  6.9 °C 29.9in /  1012.5hPa Calm   2mph /  3.2km/h 97% 0in /  0.0mm 91 W/m2
10:16 45.3 °F /  7.4 °C 44.6 °F /  7 °C 29.9in /  1012.9hPa North 0.9mph /  1.4km/h 2mph /  3.2km/h 97% 0in /  0.0mm 72 W/m2
10:21 45.7 °F /  7.6 °C 45 °F /  7.2 °C 29.9in /  1012.5hPa North 0.9mph /  1.4km/h 1mph /  1.6km/h 97% 0in /  0.0mm 58 W/m2
10:26 45.9 °F /  7.7 °C 45.1 °F /  7.3 °C 29.9in /  1012.5hPa Calm   2mph /  3.2km/h 97% 0in /  0.0mm 65 W/m2
10:31 45.9 °F /  7.7 °C 44.8 °F /  7.1 °C 29.9in /  1012.5hPa Calm     96% 0in /  0.0mm 60 W/m2
10:36 46 °F /  7.8 °C 45 °F /  7.2 °C 29.9in /  1012.5hPa NNE 0.9mph /  1.4km/h 1mph /  1.6km/h 96% 0in /  0.0mm 65 W/m2
10:41 46.2 °F /  7.9 °C 44.8 °F /  7.1 °C 29.9in /  1012.5hPa Calm     95% 0in /  0.0mm 79 W/m2
10:46 46.6 °F /  8.1 °C 45.1 °F /  7.3 °C 29.9in /  1012.9hPa Calm   1mph /  1.6km/h 95% 0in /  0.0mm 90 W/m2
10:51 46.8 °F /  8.2 °C 45.1 °F /  7.3 °C 29.9in /  1012.9hPa North 0.9mph /  1.4km/h 1mph /  1.6km/h 94% 0in /  0.0mm 111 W/m2
10:56 47.1 °F /  8.4 °C 45.5 °F /  7.5 °C 29.9in /  1012.9hPa Calm   1mph /  1.6km/h 94% 0in /  0.0mm 137 W/m2
11:01 47.5 °F /  8.6 °C 45.5 °F /  7.5 °C 29.9in /  1012.9hPa NW 0.9mph /  1.4km/h 2mph /  3.2km/h 93% 0in /  0.0mm 130 W/m2
11:06 47.8 °F /  8.8 °C 45.7 °F /  7.6 °C 29.9in /  1012.9hPa West 2mph /  3.2km/h 4mph /  6.4km/h 92% 0in /  0.0mm 109 W/m2
11:11 48 °F /  8.9 °C 45.5 °F /  7.5 °C 29.9in /  1012.9hPa WNW 0.9mph /  1.4km/h 3mph /  4.8km/h 91% 0in /  0.0mm 84 W/m2
11:16 48.4 °F /  9.1 °C 45.9 °F /  7.7 °C 29.9in /  1012.9hPa Calm   4mph /  6.4km/h 91% 0in /  0.0mm 107 W/m2
11:21 48.6 °F /  9.2 °C 46 °F /  7.8 °C 29.9in /  1012.9hPa Calm     91% 0in /  0.0mm 134 W/m2
11:26 48.9 °F /  9.4 °C 46 °F /  7.8 °C 29.9in /  1012.9hPa Calm   1mph /  1.6km/h 90% 0in /  0.0mm 123 W/m2
11:31 49.3 °F /  9.6 °C 46.4 °F /  8 °C 29.9in /  1012.9hPa Calm     90% 0in /  0.0mm 88 W/m2
11:36 49.5 °F /  9.7 °C 46.4 °F /  8 °C 29.9in /  1012.9hPa Calm     89% 0in /  0.0mm 70 W/m2
11:41 49.6 °F /  9.8 °C 46.6 °F /  8.1 °C 29.9in /  1012.9hPa Calm     89% 0in /  0.0mm 100 W/m2
11:46 49.8 °F /  9.9 °C 46.8 °F /  8.2 °C 29.9in /  1012.9hPa Calm     89% 0in /  0.0mm 102 W/m2
11:51 49.8 °F /  9.9 °C 46.4 °F /  8 °C 29.9in /  1013.2hPa Calm     88% 0in /  0.0mm 86 W/m2
11:56 50.2 °F /  10.1 °C 46.4 °F /  8 °C 29.9in /  1013.2hPa Calm     87% 0in /  0.0mm 83 W/m2
12:01 50.4 °F /  10.2 °C 46.6 °F /  8.1 °C 29.9in /  1013.2hPa Calm     87% 0in /  0.0mm 91 W/m2
12:06 50.4 °F /  10.2 °C 46.6 °F /  8.1 °C 29.9in /  1013.2hPa Calm   1mph /  1.6km/h 87% 0in /  0.0mm 97 W/m2
12:11 50.5 °F /  10.3 °C 46.8 °F /  8.2 °C 29.9in /  1012.9hPa Calm     87% 0in /  0.0mm 125 W/m2
12:16 50.7 °F /  10.4 °C 46.9 °F /  8.3 °C 29.9in /  1012.9hPa Calm     87% 0in /  0.0mm 109 W/m2
12:21 50.9 °F /  10.5 °C 47.1 °F /  8.4 °C 29.9in /  1012.9hPa WNW 0.9mph /  1.4km/h 1mph /  1.6km/h 87% 0in /  0.0mm 125 W/m2
12:26 51.1 °F /  10.6 °C 47.3 °F /  8.5 °C 29.9in /  1012.9hPa Calm   1mph /  1.6km/h 87% 0in /  0.0mm 163 W/m2
12:31 51.3 °F /  10.7 °C 47.5 °F /  8.6 °C 29.9in /  1012.9hPa Calm   1mph /  1.6km/h 87% 0in /  0.0mm 179 W/m2
12:36 51.4 °F /  10.8 °C 47.7 °F /  8.7 °C 29.9in /  1012.9hPa Calm     87% 0in /  0.0mm 178 W/m2
12:41 51.6 °F /  10.9 °C 47.8 °F /  8.8 °C 29.9in /  1012.9hPa Calm   1mph /  1.6km/h 87% 0in /  0.0mm 251 W/m2
12:46 52.2 °F /  11.2 °C 48 °F /  8.9 °C 29.9in /  1012.9hPa WNW 0.9mph /  1.4km/h 1mph /  1.6km/h 86% 0in /  0.0mm 197 W/m2
12:51 52.5 °F /  11.4 °C 48.4 °F /  9.1 °C 29.9in /  1012.9hPa Calm     86% 0in /  0.0mm 229 W/m2
12:56 52.9 °F /  11.6 °C 48.7 °F /  9.3 °C 29.9in /  1012.9hPa Calm     86% 0in /  0.0mm 176 W/m2
13:01 53.1 °F /  11.7 °C 48.7 °F /  9.3 °C 29.9in /  1012.9hPa Calm   1mph /  1.6km/h 85% 0in /  0.0mm 153 W/m2
13:06 53.2 °F /  11.8 °C 48.9 °F /  9.4 °C 29.9in /  1012.5hPa Calm     85% 0in /  0.0mm 186 W/m2
13:11 53.6 °F /  12 °C 49.3 °F /  9.6 °C 29.9in /  1012.5hPa Calm     85% 0in /  0.0mm 218 W/m2
13:16 54 °F /  12.2 °C 49.6 °F /  9.8 °C 29.9in /  1012.5hPa Calm     85% 0in /  0.0mm 169 W/m2
13:21 54.3 °F /  12.4 °C 49.8 °F /  9.9 °C 29.9in /  1012.5hPa East 2mph /  3.2km/h 2mph /  3.2km/h 85% 0in /  0.0mm 172 W/m2
13:26 54.9 °F /  12.7 °C 50.4 °F /  10.2 °C 29.9in /  1012.2hPa ESE 2mph /  3.2km/h 3mph /  4.8km/h 85% 0in /  0.0mm 132 W/m2
13:31 55.2 °F /  12.9 °C 50.5 °F /  10.3 °C 29.9in /  1012.5hPa Calm   2mph /  3.2km/h 84% 0in /  0.0mm 127 W/m2
13:36 55.4 °F /  13 °C 50.7 °F /  10.4 °C 29.9in /  1012.5hPa Calm   1mph /  1.6km/h 84% 0in /  0.0mm 118 W/m2
13:41 55.6 °F /  13.1 °C 50.5 °F /  10.3 °C 29.9in /  1012.5hPa South 0.9mph /  1.4km/h 2mph /  3.2km/h 83% 0in /  0.0mm 107 W/m2
13:46 55.6 °F /  13.1 °C 50.5 °F /  10.3 °C 29.9in /  1012.5hPa Calm     83% 0in /  0.0mm 130 W/m2
13:51 55.8 °F /  13.2 °C 50.4 °F /  10.2 °C 29.9in /  1012.2hPa Calm   2mph /  3.2km/h 82% 0in /  0.0mm 141 W/m2
13:56 55.9 °F /  13.3 °C 50.9 °F /  10.5 °C 29.9in /  1012.2hPa Calm   1mph /  1.6km/h 83% 0in /  0.0mm 155 W/m2
14:01 56.1 °F /  13.4 °C 51.1 °F /  10.6 °C 29.9in /  1012.2hPa SE 0.9mph /  1.4km/h 2mph /  3.2km/h 83% 0in /  0.0mm 128 W/m2
14:06 56.5 °F /  13.6 °C 51.1 °F /  10.6 °C 29.9in /  1011.9hPa NE 0.9mph /  1.4km/h 3mph /  4.8km/h 82% 0in /  0.0mm 111 W/m2
14:11 56.5 °F /  13.6 °C 51.1 °F /  10.6 °C 29.9in /  1012.2hPa Calm   1mph /  1.6km/h 82% 0in /  0.0mm 51 W/m2
14:16 56.7 °F /  13.7 °C 51.3 °F /  10.7 °C 29.9in /  1012.5hPa Calm     82% 0in /  0.0mm 60 W/m2
14:21 56.7 °F /  13.7 °C 51.3 °F /  10.7 °C 29.9in /  1012.2hPa Calm   1mph /  1.6km/h 82% 0in /  0.0mm 88 W/m2
14:26 56.7 °F /  13.7 °C 51.3 °F /  10.7 °C 29.9in /  1012.2hPa Calm     82% 0in /  0.0mm 72 W/m2
14:31 56.7 °F /  13.7 °C 51.6 °F /  10.9 °C 29.9in /  1012.2hPa Calm     83% 0in /  0.0mm 72 W/m2
14:36 56.7 °F /  13.7 °C 51.3 °F /  10.7 °C 29.9in /  1012.5hPa Calm     82% 0in /  0.0mm 90 W/m2
14:41 56.7 °F /  13.7 °C 51.6 °F /  10.9 °C 29.9in /  1012.2hPa Calm     83% 0in /  0.0mm 111 W/m2
14:46 56.7 °F /  13.7 °C 51.6 °F /  10.9 °C 29.9in /  1012.2hPa Calm     83% 0in /  0.0mm 118 W/m2
14:51 56.8 °F /  13.8 °C 51.4 °F /  10.8 °C 29.9in /  1012.2hPa Calm     82% 0in /  0.0mm 98 W/m2
14:56 56.8 °F /  13.8 °C 51.8 °F /  11 °C 29.9in /  1012.2hPa Calm     83% 0in /  0.0mm 118 W/m2
15:01 57 °F /  13.9 °C 52 °F /  11.1 °C 29.9in /  1012.2hPa Calm     83% 0in /  0.0mm 116 W/m2
15:06 57.2 °F /  14 °C 52.2 °F /  11.2 °C 29.9in /  1012.2hPa Calm     83% 0in /  0.0mm 123 W/m2
15:11 57.4 °F /  14.1 °C 52.3 °F /  11.3 °C 29.9in /  1012.2hPa Calm     83% 0in /  0.0mm 104 W/m2
15:16 57.6 °F /  14.2 °C 52.5 °F /  11.4 °C 29.9in /  1011.9hPa Calm     83% 0in /  0.0mm 125 W/m2
15:21 57.7 °F /  14.3 °C 52.7 °F /  11.5 °C 29.9in /  1011.9hPa Calm     83% 0in /  0.0mm 98 W/m2
15:26 57.7 °F /  14.3 °C 52.7 °F /  11.5 °C 29.9in /  1011.9hPa Calm     83% 0in /  0.0mm 100 W/m2
15:31 57.9 °F /  14.4 °C 53.1 °F /  11.7 °C 29.9in /  1011.9hPa Calm     84% 0in /  0.0mm 111 W/m2
15:36 57.9 °F /  14.4 °C 53.1 °F /  11.7 °C 29.9in /  1011.9hPa Calm     84% 0in /  0.0mm 98 W/m2
15:41 58.3 °F /  14.6 °C 53.8 °F /  12.1 °C 29.9in /  1011.9hPa Calm     85% 0in /  0.0mm 88 W/m2
15:46 58.5 °F /  14.7 °C 54 °F /  12.2 °C 29.9in /  1011.9hPa Calm     85% 0in /  0.0mm 88 W/m2
15:51 58.5 °F /  14.7 °C 54 °F /  12.2 °C 29.9in /  1011.9hPa Calm     85% 0in /  0.0mm 81 W/m2
15:56 58.6 °F /  14.8 °C 54.1 °F /  12.3 °C 29.9in /  1011.9hPa Calm     85% 0in /  0.0mm 74 W/m2
16:01 58.6 °F /  14.8 °C 53.8 °F /  12.1 °C 29.9in /  1011.9hPa Calm     84% 0in /  0.0mm 81 W/m2
16:06 58.6 °F /  14.8 °C 53.8 °F /  12.1 °C 29.9in /  1011.9hPa Calm     84% 0in /  0.0mm 91 W/m2
16:11 58.6 °F /  14.8 °C 53.8 °F /  12.1 °C 29.9in /  1011.9hPa Calm     84% 0in /  0.0mm 72 W/m2
16:16 58.6 °F /  14.8 °C 53.8 °F /  12.1 °C 29.9in /  1011.9hPa Calm     84% 0in /  0.0mm 70 W/m2
16:21 58.6 °F /  14.8 °C 53.8 °F /  12.1 °C 29.9in /  1011.5hPa Calm     84% 0in /  0.0mm 77 W/m2
16:26 58.5 °F /  14.7 °C 53.6 °F /  12 °C 29.9in /  1011.5hPa Calm     84% 0in /  0.0mm 77 W/m2
16:31 58.5 °F /  14.7 °C 54 °F /  12.2 °C 29.9in /  1011.5hPa Calm     85% 0in /  0.0mm 70 W/m2
16:36 58.5 °F /  14.7 °C 54 °F /  12.2 °C 29.9in /  1011.5hPa Calm     85% 0in /  0.0mm 63 W/m2
16:41 58.5 °F /  14.7 °C 54 °F /  12.2 °C 29.9in /  1011.5hPa Calm     85% 0in /  0.0mm 58 W/m2
16:46 58.5 °F /  14.7 °C 54 °F /  12.2 °C 29.9in /  1011.5hPa Calm     85% 0in /  0.0mm 58 W/m2
16:51 58.3 °F /  14.6 °C 53.8 °F /  12.1 °C 29.9in /  1011.9hPa Calm     85% 0in /  0.0mm 54 W/m2
16:56 58.3 °F /  14.6 °C 53.8 °F /  12.1 °C 29.9in /  1011.5hPa Calm     85% 0in /  0.0mm 47 W/m2
17:01 58.3 °F /  14.6 °C 54.1 °F /  12.3 °C 29.9in /  1011.5hPa Calm     86% 0in /  0.0mm 49 W/m2
17:06 58.3 °F /  14.6 °C 54.5 °F /  12.5 °C 29.9in /  1011.5hPa Calm     87% 0in /  0.0mm 46 W/m2
17:11 58.3 °F /  14.6 °C 54.5 °F /  12.5 °C 29.9in /  1011.5hPa Calm     87% 0in /  0.0mm 39 W/m2
17:16 58.1 °F /  14.5 °C 54.3 °F /  12.4 °C 29.9in /  1011.5hPa Calm     87% 0in /  0.0mm 35 W/m2
17:21 57.9 °F /  14.4 °C 54.1 °F /  12.3 °C 29.9in /  1011.5hPa Calm     87% 0in /  0.0mm 37 W/m2
17:26 57.9 °F /  14.4 °C 54.1 °F /  12.3 °C 29.9in /  1011.5hPa Calm     87% 0in /  0.0mm 37 W/m2
17:31 57.7 °F /  14.3 °C 54 °F /  12.2 °C 29.9in /  1011.5hPa Calm     87% 0in /  0.0mm 30 W/m2
17:36 57.6 °F /  14.2 °C 53.8 °F /  12.1 °C 29.9in /  1011.5hPa Calm     87% 0in /  0.0mm 21 W/m2
17:41 57.6 °F /  14.2 °C 53.8 °F /  12.1 °C 29.9in /  1011.5hPa Calm   1mph /  1.6km/h 87% 0in /  0.0mm 18 W/m2
17:47 57.4 °F /  14.1 °C 53.6 °F /  12 °C 29.9in /  1011.2hPa Calm     87% 0in /  0.0mm 12 W/m2
17:52 57.4 °F /  14.1 °C 53.8 °F /  12.1 °C 29.9in /  1011.2hPa Calm   1mph /  1.6km/h 88% 0in /  0.0mm 12 W/m2
17:57 57 °F /  13.9 °C 53.4 °F /  11.9 °C 29.9in /  1011.2hPa ESE 0.9mph /  1.4km/h 1mph /  1.6km/h 88% 0in /  0.0mm 9 W/m2
18:02 57 °F /  13.9 °C 53.4 °F /  11.9 °C 29.9in /  1010.8hPa Calm   1mph /  1.6km/h 88% 0in /  0.0mm 7 W/m2
18:07 56.8 °F /  13.8 °C 53.2 °F /  11.8 °C 29.9in /  1011.2hPa Calm   1mph /  1.6km/h 88% 0in /  0.0mm 7 W/m2
18:12 56.8 °F /  13.8 °C 53.6 °F /  12 °C 29.9in /  1010.8hPa Calm     89% 0in /  0.0mm 7 W/m2
18:17 56.7 °F /  13.7 °C 53.4 °F /  11.9 °C 29.9in /  1010.8hPa Calm   1mph /  1.6km/h 89% 0in /  0.0mm 5 W/m2
18:22 56.7 °F /  13.7 °C 53.4 °F /  11.9 °C 29.9in /  1010.8hPa Calm     89% 0in /  0.0mm 0 W/m2
18:27 56.5 °F /  13.6 °C 53.2 °F /  11.8 °C 29.9in /  1010.8hPa Calm     89% 0in /  0.0mm 0 W/m2
18:32 56.3 °F /  13.5 °C 53.4 °F /  11.9 °C 29.9in /  1010.8hPa Calm     90% 0in /  0.0mm 0 W/m2
18:37 56.1 °F /  13.4 °C 53.2 °F /  11.8 °C 29.9in /  1010.8hPa Calm     90% 0in /  0.0mm 0 W/m2
18:42 55.9 °F /  13.3 °C 53.1 °F /  11.7 °C 29.9in /  1010.8hPa Calm     90% 0in /  0.0mm 0 W/m2
18:47 55.9 °F /  13.3 °C 53.4 °F /  11.9 °C 29.9in /  1010.8hPa Calm     91% 0in /  0.0mm 0 W/m2
18:52 55.8 °F /  13.2 °C 53.2 °F /  11.8 °C 29.9in /  1010.8hPa Calm   1mph /  1.6km/h 91% 0in /  0.0mm 0 W/m2
18:57 55.8 °F /  13.2 °C 53.2 °F /  11.8 °C 29.9in /  1010.8hPa Calm     91% 0in /  0.0mm 0 W/m2
19:02 55.6 °F /  13.1 °C 53.2 °F /  11.8 °C 29.9in /  1010.8hPa Calm   1mph /  1.6km/h 92% 0in /  0.0mm 0 W/m2
19:07 55.6 °F /  13.1 °C 53.2 °F /  11.8 °C 29.9in /  1010.8hPa Calm     92% 0in /  0.0mm 0 W/m2
19:12 55.2 °F /  12.9 °C 52.9 °F /  11.6 °C 29.9in /  1011.2hPa Calm     92% 0in /  0.0mm 0 W/m2
19:17 55.2 °F /  12.9 °C 52.9 °F /  11.6 °C 29.9in /  1011.2hPa Calm     92% 0in /  0.0mm 0 W/m2
19:22 55 °F /  12.8 °C 53.1 °F /  11.7 °C 29.9in /  1010.8hPa Calm   1mph /  1.6km/h 93% 0in /  0.0mm 0 W/m2
19:27 55 °F /  12.8 °C 53.1 °F /  11.7 °C 29.9in /  1010.8hPa ESE 0.9mph /  1.4km/h 1mph /  1.6km/h 93% 0in /  0.0mm 0 W/m2
19:32 54.9 °F /  12.7 °C 52.9 °F /  11.6 °C 29.9in /  1010.8hPa Calm   1mph /  1.6km/h 93% 0in /  0.0mm 0 W/m2
19:37 54.9 °F /  12.7 °C 52.9 °F /  11.6 °C 29.9in /  1010.8hPa Calm     93% 0in /  0.0mm 0 W/m2
19:42 54.7 °F /  12.6 °C 52.7 °F /  11.5 °C 29.9in /  1010.8hPa Calm     93% 0in /  0.0mm 0 W/m2
19:47 54.9 °F /  12.7 °C 52.9 °F /  11.6 °C 29.9in /  1010.8hPa Calm   2mph /  3.2km/h 93% 0in /  0.0mm 0 W/m2
19:52 54.9 °F /  12.7 °C 52.9 °F /  11.6 °C 29.9in /  1010.8hPa Calm   1mph /  1.6km/h 93% 0in /  0.0mm 0 W/m2
19:57 55 °F /  12.8 °C 53.1 °F /  11.7 °C 29.9in /  1010.8hPa NNE 2.9mph /  4.7km/h 3mph /  4.8km/h 93% 0in /  0.0mm 0 W/m2
20:02 55.6 °F /  13.1 °C 53.2 °F /  11.8 °C 29.9in /  1010.8hPa Calm   3mph /  4.8km/h 92% 0in /  0.0mm 0 W/m2
20:07 55.8 °F /  13.2 °C 53.2 °F /  11.8 °C 29.9in /  1010.8hPa Calm   2mph /  3.2km/h 91% 0in /  0.0mm 0 W/m2
20:12 55.8 °F /  13.2 °C 53.2 °F /  11.8 °C 29.9in /  1010.8hPa Calm   3mph /  4.8km/h 91% 0in /  0.0mm 0 W/m2
20:17 55.9 °F /  13.3 °C 53.1 °F /  11.7 °C 29.8in /  1010.5hPa ENE 2mph /  3.2km/h 2mph /  3.2km/h 90% 0in /  0.0mm 0 W/m2
20:22 55.9 °F /  13.3 °C 53.1 °F /  11.7 °C 29.8in /  1010.2hPa Calm   1mph /  1.6km/h 90% 0in /  0.0mm 0 W/m2
20:27 55.9 °F /  13.3 °C 53.1 °F /  11.7 °C 29.8in /  1010.2hPa Calm     90% 0in /  0.0mm 0 W/m2
20:32 55.8 °F /  13.2 °C 52.9 °F /  11.6 °C 29.8in /  1010.2hPa SSW 0.9mph /  1.4km/h 1mph /  1.6km/h 90% 0in /  0.0mm 0 W/m2
20:37 55.6 °F /  13.1 °C 53.1 °F /  11.7 °C 29.8in /  1010.2hPa Calm   1mph /  1.6km/h 91% 0in /  0.0mm 0 W/m2
20:42 55.4 °F /  13 °C 52.9 °F /  11.6 °C 29.8in /  1010.2hPa Calm   1mph /  1.6km/h 91% 0in /  0.0mm 0 W/m2
20:47 55.2 °F /  12.9 °C 52.7 °F /  11.5 °C 29.8in /  1010.2hPa Calm     91% 0in /  0.0mm 0 W/m2
20:52 55 °F /  12.8 °C 52.5 °F /  11.4 °C 29.8in /  1010.2hPa Calm     91% 0in /  0.0mm 0 W/m2
20:57 55 °F /  12.8 °C 52.5 °F /  11.4 °C 29.8in /  1010.2hPa Calm     91% 0in /  0.0mm 0 W/m2
21:34 54 °F /  12.2 °C 52 °F /  11.1 °C 29.8in /  1009.5hPa Calm     93% 0in /  0.0mm 0 W/m2
21:39 54 °F /  12.2 °C 52 °F /  11.1 °C 29.8in /  1009.8hPa Calm     93% 0in /  0.0mm 0 W/m2
21:44 54 °F /  12.2 °C 52 °F /  11.1 °C 29.8in /  1009.8hPa Calm     93% 0in /  0.0mm 0 W/m2
21:49 54 °F /  12.2 °C 52 °F /  11.1 °C 29.8in /  1009.5hPa Calm     93% 0in /  0.0mm 0 W/m2
21:54 54 °F /  12.2 °C 52 °F /  11.1 °C 29.8in /  1009.5hPa Calm     93% 0in /  0.0mm 0 W/m2
21:59 53.8 °F /  12.1 °C 51.8 °F /  11 °C 29.8in /  1009.8hPa Calm     93% 0in /  0.0mm 0 W/m2
22:04 53.8 °F /  12.1 °C 51.8 °F /  11 °C 29.8in /  1009.5hPa Calm     93% 0in /  0.0mm 0 W/m2
22:09 53.8 °F /  12.1 °C 51.8 °F /  11 °C 29.8in /  1009.5hPa Calm     93% 0in /  0.0mm 0 W/m2
22:14 53.8 °F /  12.1 °C 51.8 °F /  11 °C 29.8in /  1009.5hPa Calm     93% 0in /  0.0mm 0 W/m2
22:19 53.8 °F /  12.1 °C 52.2 °F /  11.2 °C 29.8in /  1009.5hPa Calm     94% 0in /  0.0mm 0 W/m2
22:24 53.8 °F /  12.1 °C 52.2 °F /  11.2 °C 29.8in /  1009.5hPa Calm     94% 0in /  0.0mm 0 W/m2
22:29 53.8 °F /  12.1 °C 52.2 °F /  11.2 °C 29.8in /  1009.5hPa Calm     94% 0in /  0.0mm 0 W/m2
22:34 53.6 °F /  12 °C 52 °F /  11.1 °C 29.8in /  1009.5hPa Calm     94% 0in /  0.0mm 0 W/m2
22:39 53.4 °F /  11.9 °C 51.8 °F /  11 °C 29.8in /  1009.5hPa Calm     94% 0in /  0.0mm 0 W/m2
22:44 53.4 °F /  11.9 °C 51.8 °F /  11 °C 29.8in /  1009.5hPa Calm     94% 0in /  0.0mm 0 W/m2
22:49 53.4 °F /  11.9 °C 51.8 °F /  11 °C 29.8in /  1009.1hPa Calm     94% 0in /  0.0mm 0 W/m2
22:54 53.4 °F /  11.9 °C 51.8 °F /  11 °C 29.8in /  1009.1hPa Calm     94% 0in /  0.0mm 0 W/m2
22:59 53.2 °F /  11.8 °C 51.6 °F /  10.9 °C 29.8in /  1009.1hPa Calm     94% 0in /  0.0mm 0 W/m2
23:04 53.2 °F /  11.8 °C 51.6 °F /  10.9 °C 29.8in /  1009.1hPa Calm     94% 0in /  0.0mm 0 W/m2
23:10 53.2 °F /  11.8 °C 51.6 °F /  10.9 °C 29.8in /  1009.1hPa Calm     94% 0in /  0.0mm 0 W/m2
23:15 53.2 °F /  11.8 °C 51.6 °F /  10.9 °C 29.8in /  1009.1hPa Calm     94% 0in /  0.0mm 0 W/m2
23:20 53.1 °F /  11.7 °C 51.4 °F /  10.8 °C 29.8in /  1009.1hPa Calm     94% 0in /  0.0mm 0 W/m2
23:25 53.1 °F /  11.7 °C 51.4 °F /  10.8 °C 29.8in /  1009.1hPa Calm     94% 0in /  0.0mm 0 W/m2
23:30 53.1 °F /  11.7 °C 51.4 °F /  10.8 °C 29.8in /  1009.1hPa Calm     94% 0in /  0.0mm 0 W/m2
23:35 53.1 °F /  11.7 °C 51.4 °F /  10.8 °C 29.8in /  1009.1hPa Calm     94% 0in /  0.0mm 0 W/m2
23:40 53.1 °F /  11.7 °C 51.4 °F /  10.8 °C 29.8in /  1009.1hPa Calm     94% 0in /  0.0mm 0 W/m2
23:45 53.1 °F /  11.7 °C 51.4 °F /  10.8 °C 29.8in /  1008.8hPa Calm     94% 0in /  0.0mm 0 W/m2
23:50 52.9 °F /  11.6 °C 51.3 °F /  10.7 °C 29.8in /  1009.1hPa Calm     94% 0in /  0.0mm 0 W/m2
23:55 52.9 °F /  11.6 °C 51.3 °F /  10.7 °C 29.8in /  1009.1hPa Calm     94% 0in /  0.0mm 0 W/m2
Juneau County Weather
Compliments of Weather Underground - 2 mb